sensor_id;sensor_type;location;lat;lon;timestamp;P1;durP1;ratioP1;P2;durP2;ratioP2
20449;SDS011;10384;51.940;8.432;2023-11-19T00:01:53;3.13;;;1.77;;
20449;SDS011;10384;51.940;8.432;2023-11-19T00:04:19;4.63;;;1.47;;
20449;SDS011;10384;51.940;8.432;2023-11-19T00:06:45;2.20;;;1.43;;
20449;SDS011;10384;51.940;8.432;2023-11-19T00:09:11;3.20;;;1.47;;
20449;SDS011;10384;51.940;8.432;2023-11-19T00:11:37;2.27;;;1.40;;
20449;SDS011;10384;51.940;8.432;2023-11-19T00:14:03;2.37;;;1.70;;
20449;SDS011;10384;51.940;8.432;2023-11-19T00:16:29;3.60;;;1.60;;
20449;SDS011;10384;51.940;8.432;2023-11-19T00:18:57;2.10;;;1.50;;
20449;SDS011;10384;51.940;8.432;2023-11-19T00:21:23;4.13;;;1.83;;
20449;SDS011;10384;51.940;8.432;2023-11-19T00:23:48;2.83;;;2.23;;
20449;SDS011;10384;51.940;8.432;2023-11-19T00:26:14;4.40;;;1.80;;
20449;SDS011;10384;51.940;8.432;2023-11-19T00:28:41;2.30;;;1.70;;
20449;SDS011;10384;51.940;8.432;2023-11-19T00:31:08;2.20;;;1.60;;
20449;SDS011;10384;51.940;8.432;2023-11-19T00:33:34;2.90;;;1.80;;
20449;SDS011;10384;51.940;8.432;2023-11-19T00:36:00;2.40;;;1.60;;
20449;SDS011;10384;51.940;8.432;2023-11-19T00:38:26;3.67;;;1.67;;
20449;SDS011;10384;51.940;8.432;2023-11-19T00:40:52;3.23;;;1.60;;
20449;SDS011;10384;51.940;8.432;2023-11-19T00:43:18;2.27;;;1.70;;
20449;SDS011;10384;51.940;8.432;2023-11-19T00:45:47;3.17;;;1.83;;
20449;SDS011;10384;51.940;8.432;2023-11-19T00:48:15;3.03;;;1.60;;
20449;SDS011;10384;51.940;8.432;2023-11-19T00:50:41;3.10;;;1.80;;
20449;SDS011;10384;51.940;8.432;2023-11-19T00:53:09;2.03;;;1.50;;
20449;SDS011;10384;51.940;8.432;2023-11-19T00:55:35;2.50;;;1.57;;
20449;SDS011;10384;51.940;8.432;2023-11-19T00:58:01;2.87;;;2.30;;
20449;SDS011;10384;51.940;8.432;2023-11-19T01:00:28;1.97;;;1.43;;
20449;SDS011;10384;51.940;8.432;2023-11-19T01:02:54;5.70;;;2.57;;
20449;SDS011;10384;51.940;8.432;2023-11-19T01:05:20;2.07;;;1.37;;
20449;SDS011;10384;51.940;8.432;2023-11-19T01:07:47;2.27;;;1.63;;
20449;SDS011;10384;51.940;8.432;2023-11-19T01:10:13;2.03;;;1.40;;
20449;SDS011;10384;51.940;8.432;2023-11-19T01:12:40;2.17;;;1.60;;
20449;SDS011;10384;51.940;8.432;2023-11-19T01:15:07;5.37;;;1.50;;
20449;SDS011;10384;51.940;8.432;2023-11-19T01:17:33;3.30;;;1.40;;
20449;SDS011;10384;51.940;8.432;2023-11-19T01:19:59;2.80;;;1.73;;
20449;SDS011;10384;51.940;8.432;2023-11-19T01:22:25;3.17;;;1.67;;
20449;SDS011;10384;51.940;8.432;2023-11-19T01:24:51;2.77;;;2.00;;
20449;SDS011;10384;51.940;8.432;2023-11-19T01:27:19;4.30;;;2.00;;
20449;SDS011;10384;51.940;8.432;2023-11-19T01:29:45;8.03;;;2.57;;
20449;SDS011;10384;51.940;8.432;2023-11-19T01:32:14;7.60;;;2.70;;
20449;SDS011;10384;51.940;8.432;2023-11-19T01:34:40;7.00;;;2.33;;
20449;SDS011;10384;51.940;8.432;2023-11-19T01:37:06;3.00;;;1.60;;
20449;SDS011;10384;51.940;8.432;2023-11-19T01:39:34;4.47;;;1.60;;
20449;SDS011;10384;51.940;8.432;2023-11-19T01:42:00;3.27;;;1.80;;
20449;SDS011;10384;51.940;8.432;2023-11-19T01:44:26;2.80;;;1.70;;
20449;SDS011;10384;51.940;8.432;2023-11-19T01:46:52;2.67;;;1.77;;
20449;SDS011;10384;51.940;8.432;2023-11-19T01:49:18;4.17;;;1.67;;
20449;SDS011;10384;51.940;8.432;2023-11-19T01:51:45;3.23;;;1.77;;
20449;SDS011;10384;51.940;8.432;2023-11-19T01:54:11;2.97;;;1.67;;
20449;SDS011;10384;51.940;8.432;2023-11-19T01:56:38;3.43;;;1.80;;
20449;SDS011;10384;51.940;8.432;2023-11-19T01:59:05;5.53;;;2.10;;
20449;SDS011;10384;51.940;8.432;2023-11-19T02:01:32;2.53;;;1.80;;
20449;SDS011;10384;51.940;8.432;2023-11-19T02:03:59;3.93;;;1.90;;
20449;SDS011;10384;51.940;8.432;2023-11-19T02:06:27;3.13;;;2.00;;
20449;SDS011;10384;51.940;8.432;2023-11-19T02:08:53;3.70;;;2.03;;
20449;SDS011;10384;51.940;8.432;2023-11-19T02:11:19;2.83;;;1.93;;
20449;SDS011;10384;51.940;8.432;2023-11-19T02:13:45;4.17;;;2.43;;
20449;SDS011;10384;51.940;8.432;2023-11-19T02:16:12;3.77;;;2.30;;
20449;SDS011;10384;51.940;8.432;2023-11-19T02:18:38;3.43;;;2.13;;
20449;SDS011;10384;51.940;8.432;2023-11-19T02:21:04;2.97;;;2.00;;
20449;SDS011;10384;51.940;8.432;2023-11-19T02:23:30;4.17;;;2.07;;
20449;SDS011;10384;51.940;8.432;2023-11-19T02:28:22;2.67;;;1.80;;
20449;SDS011;10384;51.940;8.432;2023-11-19T02:30:48;3.13;;;2.13;;
20449;SDS011;10384;51.940;8.432;2023-11-19T02:33:15;4.80;;;2.13;;
20449;SDS011;10384;51.940;8.432;2023-11-19T02:35:41;5.40;;;2.50;;
20449;SDS011;10384;51.940;8.432;2023-11-19T02:38:07;3.63;;;2.23;;
20449;SDS011;10384;51.940;8.432;2023-11-19T02:40:34;6.63;;;2.63;;
20449;SDS011;10384;51.940;8.432;2023-11-19T02:43:00;6.20;;;3.10;;
20449;SDS011;10384;51.940;8.432;2023-11-19T02:45:26;4.87;;;2.30;;
20449;SDS011;10384;51.940;8.432;2023-11-19T02:47:52;6.00;;;2.67;;
20449;SDS011;10384;51.940;8.432;2023-11-19T02:50:20;12.83;;;3.63;;
20449;SDS011;10384;51.940;8.432;2023-11-19T02:52:53;8.50;;;3.33;;
20449;SDS011;10384;51.940;8.432;2023-11-19T02:55:21;13.30;;;3.53;;
20449;SDS011;10384;51.940;8.432;2023-11-19T02:57:48;23.63;;;5.50;;
20449;SDS011;10384;51.940;8.432;2023-11-19T03:00:15;17.93;;;5.23;;
20449;SDS011;10384;51.940;8.432;2023-11-19T03:02:42;19.10;;;5.13;;
20449;SDS011;10384;51.940;8.432;2023-11-19T03:05:14;17.20;;;5.00;;
20449;SDS011;10384;51.940;8.432;2023-11-19T03:07:44;19.83;;;6.03;;
20449;SDS011;10384;51.940;8.432;2023-11-19T03:10:10;31.33;;;7.60;;
20449;SDS011;10384;51.940;8.432;2023-11-19T03:12:43;25.00;;;7.27;;
20449;SDS011;10384;51.940;8.432;2023-11-19T03:15:10;21.03;;;6.70;;
20449;SDS011;10384;51.940;8.432;2023-11-19T03:17:38;27.10;;;6.73;;
20449;SDS011;10384;51.940;8.432;2023-11-19T03:20:05;25.70;;;7.60;;
20449;SDS011;10384;51.940;8.432;2023-11-19T03:22:31;30.03;;;8.20;;
20449;SDS011;10384;51.940;8.432;2023-11-19T03:25:00;28.00;;;8.30;;
20449;SDS011;10384;51.940;8.432;2023-11-19T03:27:26;27.57;;;7.97;;
20449;SDS011;10384;51.940;8.432;2023-11-19T03:29:52;25.80;;;7.80;;
20449;SDS011;10384;51.940;8.432;2023-11-19T03:32:18;27.43;;;7.00;;
20449;SDS011;10384;51.940;8.432;2023-11-19T03:34:45;25.23;;;8.30;;
20449;SDS011;10384;51.940;8.432;2023-11-19T03:37:11;23.57;;;8.33;;
20449;SDS011;10384;51.940;8.432;2023-11-19T03:39:37;25.07;;;8.47;;
20449;SDS011;10384;51.940;8.432;2023-11-19T03:42:04;26.10;;;8.27;;
20449;SDS011;10384;51.940;8.432;2023-11-19T03:44:30;25.90;;;8.67;;
20449;SDS011;10384;51.940;8.432;2023-11-19T03:46:55;29.90;;;9.10;;
20449;SDS011;10384;51.940;8.432;2023-11-19T03:49:21;22.80;;;8.50;;
20449;SDS011;10384;51.940;8.432;2023-11-19T03:51:49;30.77;;;9.07;;
20449;SDS011;10384;51.940;8.432;2023-11-19T03:54:15;38.03;;;8.73;;
20449;SDS011;10384;51.940;8.432;2023-11-19T03:56:40;30.90;;;8.70;;
20449;SDS011;10384;51.940;8.432;2023-11-19T03:59:06;27.37;;;8.20;;
20449;SDS011;10384;51.940;8.432;2023-11-19T04:01:34;15.97;;;6.13;;
20449;SDS011;10384;51.940;8.432;2023-11-19T04:04:02;15.40;;;6.37;;
20449;SDS011;10384;51.940;8.432;2023-11-19T04:06:28;14.17;;;6.13;;
20449;SDS011;10384;51.940;8.432;2023-11-19T04:08:54;11.70;;;5.23;;
20449;SDS011;10384;51.940;8.432;2023-11-19T04:11:20;11.40;;;5.10;;
20449;SDS011;10384;51.940;8.432;2023-11-19T04:13:46;11.10;;;4.77;;
20449;SDS011;10384;51.940;8.432;2023-11-19T04:16:12;15.87;;;4.83;;
20449;SDS011;10384;51.940;8.432;2023-11-19T04:18:39;9.63;;;4.47;;
20449;SDS011;10384;51.940;8.432;2023-11-19T04:21:06;13.63;;;4.73;;
20449;SDS011;10384;51.940;8.432;2023-11-19T04:23:32;12.50;;;4.90;;
20449;SDS011;10384;51.940;8.432;2023-11-19T04:25:58;13.80;;;4.70;;
20449;SDS011;10384;51.940;8.432;2023-11-19T04:28:24;10.43;;;4.63;;
20449;SDS011;10384;51.940;8.432;2023-11-19T04:30:51;14.30;;;5.03;;
20449;SDS011;10384;51.940;8.432;2023-11-19T04:33:17;8.37;;;4.10;;
20449;SDS011;10384;51.940;8.432;2023-11-19T04:35:44;12.17;;;5.47;;
20449;SDS011;10384;51.940;8.432;2023-11-19T04:38:10;13.43;;;5.00;;
20449;SDS011;10384;51.940;8.432;2023-11-19T04:40:36;13.33;;;5.07;;
20449;SDS011;10384;51.940;8.432;2023-11-19T04:43:02;10.47;;;5.27;;
20449;SDS011;10384;51.940;8.432;2023-11-19T04:45:28;13.30;;;4.07;;
20449;SDS011;10384;51.940;8.432;2023-11-19T04:47:53;10.60;;;4.57;;
20449;SDS011;10384;51.940;8.432;2023-11-19T04:50:19;19.30;;;4.90;;
20449;SDS011;10384;51.940;8.432;2023-11-19T04:52:46;7.20;;;3.80;;
20449;SDS011;10384;51.940;8.432;2023-11-19T04:55:12;13.80;;;4.57;;
20449;SDS011;10384;51.940;8.432;2023-11-19T04:57:39;8.37;;;3.73;;
20449;SDS011;10384;51.940;8.432;2023-11-19T05:00:05;13.17;;;4.00;;
20449;SDS011;10384;51.940;8.432;2023-11-19T05:02:33;11.23;;;3.37;;
20449;SDS011;10384;51.940;8.432;2023-11-19T05:04:59;11.97;;;4.13;;
20449;SDS011;10384;51.940;8.432;2023-11-19T05:07:25;15.17;;;4.03;;
20449;SDS011;10384;51.940;8.432;2023-11-19T05:09:51;11.57;;;3.93;;
20449;SDS011;10384;51.940;8.432;2023-11-19T05:12:17;7.30;;;3.60;;
20449;SDS011;10384;51.940;8.432;2023-11-19T05:14:43;8.10;;;3.17;;
20449;SDS011;10384;51.940;8.432;2023-11-19T05:17:14;10.07;;;3.27;;
20449;SDS011;10384;51.940;8.432;2023-11-19T05:19:40;14.47;;;3.37;;
20449;SDS011;10384;51.940;8.432;2023-11-19T05:22:06;13.20;;;4.17;;
20449;SDS011;10384;51.940;8.432;2023-11-19T05:24:32;10.70;;;3.00;;
20449;SDS011;10384;51.940;8.432;2023-11-19T05:26:59;14.93;;;3.97;;
20449;SDS011;10384;51.940;8.432;2023-11-19T05:29:24;12.47;;;3.27;;
20449;SDS011;10384;51.940;8.432;2023-11-19T05:31:50;13.40;;;3.40;;
20449;SDS011;10384;51.940;8.432;2023-11-19T05:34:16;12.37;;;3.47;;
20449;SDS011;10384;51.940;8.432;2023-11-19T05:36:42;10.47;;;3.17;;
20449;SDS011;10384;51.940;8.432;2023-11-19T05:39:08;10.70;;;3.83;;
20449;SDS011;10384;51.940;8.432;2023-11-19T05:41:36;14.07;;;3.20;;
20449;SDS011;10384;51.940;8.432;2023-11-19T05:44:02;9.07;;;3.00;;
20449;SDS011;10384;51.940;8.432;2023-11-19T05:46:28;13.73;;;3.30;;
20449;SDS011;10384;51.940;8.432;2023-11-19T05:48:54;12.13;;;3.77;;
20449;SDS011;10384;51.940;8.432;2023-11-19T05:51:20;16.00;;;3.67;;
20449;SDS011;10384;51.940;8.432;2023-11-19T05:53:46;12.73;;;3.70;;
20449;SDS011;10384;51.940;8.432;2023-11-19T05:56:12;14.07;;;4.27;;
20449;SDS011;10384;51.940;8.432;2023-11-19T05:58:40;18.43;;;3.90;;
20449;SDS011;10384;51.940;8.432;2023-11-19T06:01:06;14.43;;;4.10;;
20449;SDS011;10384;51.940;8.432;2023-11-19T06:03:32;8.93;;;3.10;;
20449;SDS011;10384;51.940;8.432;2023-11-19T06:05:58;9.43;;;3.57;;
20449;SDS011;10384;51.940;8.432;2023-11-19T06:08:24;13.20;;;3.10;;
20449;SDS011;10384;51.940;8.432;2023-11-19T06:10:52;10.07;;;3.00;;
20449;SDS011;10384;51.940;8.432;2023-11-19T06:13:18;17.17;;;4.03;;
20449;SDS011;10384;51.940;8.432;2023-11-19T06:15:44;7.60;;;2.37;;
20449;SDS011;10384;51.940;8.432;2023-11-19T06:18:11;16.73;;;4.17;;
20449;SDS011;10384;51.940;8.432;2023-11-19T06:20:37;7.17;;;3.33;;
20449;SDS011;10384;51.940;8.432;2023-11-19T06:23:03;14.90;;;3.23;;
20449;SDS011;10384;51.940;8.432;2023-11-19T06:25:29;13.10;;;3.87;;
20449;SDS011;10384;51.940;8.432;2023-11-19T06:27:55;14.47;;;3.10;;
20449;SDS011;10384;51.940;8.432;2023-11-19T06:30:22;18.47;;;3.53;;
20449;SDS011;10384;51.940;8.432;2023-11-19T06:32:48;17.57;;;3.87;;
20449;SDS011;10384;51.940;8.432;2023-11-19T06:35:14;18.47;;;3.93;;
20449;SDS011;10384;51.940;8.432;2023-11-19T06:37:40;16.83;;;3.30;;
20449;SDS011;10384;51.940;8.432;2023-11-19T06:40:07;16.47;;;2.90;;
20449;SDS011;10384;51.940;8.432;2023-11-19T06:42:34;16.07;;;3.43;;
20449;SDS011;10384;51.940;8.432;2023-11-19T06:45:00;19.87;;;3.37;;
20449;SDS011;10384;51.940;8.432;2023-11-19T06:47:27;18.07;;;2.90;;
20449;SDS011;10384;51.940;8.432;2023-11-19T06:49:53;13.27;;;3.20;;
20449;SDS011;10384;51.940;8.432;2023-11-19T06:52:19;17.83;;;3.13;;
20449;SDS011;10384;51.940;8.432;2023-11-19T06:54:45;12.10;;;2.80;;
20449;SDS011;10384;51.940;8.432;2023-11-19T06:57:12;23.53;;;3.70;;
20449;SDS011;10384;51.940;8.432;2023-11-19T06:59:38;16.90;;;3.50;;
20449;SDS011;10384;51.940;8.432;2023-11-19T07:02:04;14.33;;;3.27;;
20449;SDS011;10384;51.940;8.432;2023-11-19T07:04:30;18.17;;;3.13;;
20449;SDS011;10384;51.940;8.432;2023-11-19T07:06:58;18.50;;;2.53;;
20449;SDS011;10384;51.940;8.432;2023-11-19T07:09:24;15.07;;;3.27;;
20449;SDS011;10384;51.940;8.432;2023-11-19T07:11:50;17.00;;;2.77;;
20449;SDS011;10384;51.940;8.432;2023-11-19T07:14:19;16.40;;;3.33;;
20449;SDS011;10384;51.940;8.432;2023-11-19T07:16:45;14.17;;;2.97;;
20449;SDS011;10384;51.940;8.432;2023-11-19T07:19:12;11.63;;;3.03;;
20449;SDS011;10384;51.940;8.432;2023-11-19T07:21:41;17.77;;;5.03;;
20449;SDS011;10384;51.940;8.432;2023-11-19T07:24:09;17.57;;;3.17;;
20449;SDS011;10384;51.940;8.432;2023-11-19T07:26:40;13.17;;;3.10;;
20449;SDS011;10384;51.940;8.432;2023-11-19T07:29:06;14.47;;;3.00;;
20449;SDS011;10384;51.940;8.432;2023-11-19T07:31:32;14.27;;;2.93;;
20449;SDS011;10384;51.940;8.432;2023-11-19T07:33:58;15.70;;;2.63;;
20449;SDS011;10384;51.940;8.432;2023-11-19T07:36:24;11.63;;;3.10;;
20449;SDS011;10384;51.940;8.432;2023-11-19T07:38:50;19.57;;;3.57;;
20449;SDS011;10384;51.940;8.432;2023-11-19T07:41:16;13.77;;;3.00;;
20449;SDS011;10384;51.940;8.432;2023-11-19T07:43:45;16.67;;;2.97;;
20449;SDS011;10384;51.940;8.432;2023-11-19T07:46:12;23.13;;;3.00;;
20449;SDS011;10384;51.940;8.432;2023-11-19T07:48:38;17.37;;;2.80;;
20449;SDS011;10384;51.940;8.432;2023-11-19T07:51:04;17.50;;;3.33;;
20449;SDS011;10384;51.940;8.432;2023-11-19T07:53:30;16.37;;;4.13;;
20449;SDS011;10384;51.940;8.432;2023-11-19T07:55:57;17.93;;;3.37;;
20449;SDS011;10384;51.940;8.432;2023-11-19T07:58:27;22.43;;;2.87;;
20449;SDS011;10384;51.940;8.432;2023-11-19T08:00:53;17.57;;;3.03;;
20449;SDS011;10384;51.940;8.432;2023-11-19T08:03:19;13.93;;;2.60;;
20449;SDS011;10384;51.940;8.432;2023-11-19T08:05:47;16.47;;;3.50;;
20449;SDS011;10384;51.940;8.432;2023-11-19T08:08:12;10.70;;;2.77;;
20449;SDS011;10384;51.940;8.432;2023-11-19T08:10:38;16.10;;;2.80;;
20449;SDS011;10384;51.940;8.432;2023-11-19T08:13:05;15.97;;;2.90;;
20449;SDS011;10384;51.940;8.432;2023-11-19T08:15:31;21.90;;;3.77;;
20449;SDS011;10384;51.940;8.432;2023-11-19T08:17:57;15.53;;;3.00;;
20449;SDS011;10384;51.940;8.432;2023-11-19T08:20:23;14.23;;;2.70;;
20449;SDS011;10384;51.940;8.432;2023-11-19T08:22:49;16.00;;;3.77;;
20449;SDS011;10384;51.940;8.432;2023-11-19T08:25:15;19.13;;;2.93;;
20449;SDS011;10384;51.940;8.432;2023-11-19T08:27:41;16.37;;;3.97;;
20449;SDS011;10384;51.940;8.432;2023-11-19T08:30:08;15.10;;;4.17;;
20449;SDS011;10384;51.940;8.432;2023-11-19T08:32:34;24.00;;;3.43;;
20449;SDS011;10384;51.940;8.432;2023-11-19T08:35:01;16.30;;;3.77;;
20449;SDS011;10384;51.940;8.432;2023-11-19T08:37:27;18.13;;;2.93;;
20449;SDS011;10384;51.940;8.432;2023-11-19T08:39:53;15.63;;;2.80;;
20449;SDS011;10384;51.940;8.432;2023-11-19T08:42:19;17.43;;;3.20;;
20449;SDS011;10384;51.940;8.432;2023-11-19T08:44:49;18.80;;;3.70;;
20449;SDS011;10384;51.940;8.432;2023-11-19T08:47:15;21.97;;;3.83;;
20449;SDS011;10384;51.940;8.432;2023-11-19T08:49:43;13.43;;;3.33;;
20449;SDS011;10384;51.940;8.432;2023-11-19T08:52:08;19.53;;;2.70;;
20449;SDS011;10384;51.940;8.432;2023-11-19T08:54:35;22.00;;;3.27;;
20449;SDS011;10384;51.940;8.432;2023-11-19T08:57:01;23.57;;;3.63;;
20449;SDS011;10384;51.940;8.432;2023-11-19T08:59:28;23.47;;;3.70;;
20449;SDS011;10384;51.940;8.432;2023-11-19T09:01:54;19.77;;;3.20;;
20449;SDS011;10384;51.940;8.432;2023-11-19T09:04:20;13.90;;;3.03;;
20449;SDS011;10384;51.940;8.432;2023-11-19T09:06:49;15.27;;;2.67;;
20449;SDS011;10384;51.940;8.432;2023-11-19T09:09:15;12.47;;;2.20;;
20449;SDS011;10384;51.940;8.432;2023-11-19T09:11:41;24.37;;;3.73;;
20449;SDS011;10384;51.940;8.432;2023-11-19T09:14:07;16.43;;;2.43;;
20449;SDS011;10384;51.940;8.432;2023-11-19T09:16:33;11.00;;;3.07;;
20449;SDS011;10384;51.940;8.432;2023-11-19T09:18:59;19.67;;;3.30;;
20449;SDS011;10384;51.940;8.432;2023-11-19T09:21:27;27.60;;;3.80;;
20449;SDS011;10384;51.940;8.432;2023-11-19T09:23:54;14.60;;;3.80;;
20449;SDS011;10384;51.940;8.432;2023-11-19T09:26:20;13.33;;;3.10;;
20449;SDS011;10384;51.940;8.432;2023-11-19T09:28:46;12.50;;;3.13;;
20449;SDS011;10384;51.940;8.432;2023-11-19T09:31:15;23.83;;;3.30;;
20449;SDS011;10384;51.940;8.432;2023-11-19T09:33:41;18.43;;;3.50;;
20449;SDS011;10384;51.940;8.432;2023-11-19T09:36:08;21.63;;;5.70;;
20449;SDS011;10384;51.940;8.432;2023-11-19T09:38:35;24.00;;;4.67;;
20449;SDS011;10384;51.940;8.432;2023-11-19T09:41:03;17.37;;;4.03;;
20449;SDS011;10384;51.940;8.432;2023-11-19T09:43:33;13.80;;;3.27;;
20449;SDS011;10384;51.940;8.432;2023-11-19T09:46:01;18.80;;;3.53;;
20449;SDS011;10384;51.940;8.432;2023-11-19T09:48:32;29.27;;;6.13;;
20449;SDS011;10384;51.940;8.432;2023-11-19T09:50:58;22.93;;;3.53;;
20449;SDS011;10384;51.940;8.432;2023-11-19T09:53:24;13.33;;;3.33;;
20449;SDS011;10384;51.940;8.432;2023-11-19T09:55:50;23.60;;;4.53;;
20449;SDS011;10384;51.940;8.432;2023-11-19T09:58:17;18.57;;;3.40;;
20449;SDS011;10384;51.940;8.432;2023-11-19T10:00:43;21.47;;;3.20;;
20449;SDS011;10384;51.940;8.432;2023-11-19T10:03:10;15.27;;;3.63;;
20449;SDS011;10384;51.940;8.432;2023-11-19T10:05:39;14.23;;;2.67;;
20449;SDS011;10384;51.940;8.432;2023-11-19T10:08:06;13.60;;;3.17;;
20449;SDS011;10384;51.940;8.432;2023-11-19T10:10:33;20.00;;;3.33;;
20449;SDS011;10384;51.940;8.432;2023-11-19T10:12:59;17.63;;;3.57;;
20449;SDS011;10384;51.940;8.432;2023-11-19T10:15:25;17.37;;;2.60;;
20449;SDS011;10384;51.940;8.432;2023-11-19T10:17:57;21.07;;;2.73;;
20449;SDS011;10384;51.940;8.432;2023-11-19T10:20:23;9.93;;;2.23;;
20449;SDS011;10384;51.940;8.432;2023-11-19T10:22:53;14.60;;;3.47;;
20449;SDS011;10384;51.940;8.432;2023-11-19T10:25:22;13.50;;;2.97;;
20449;SDS011;10384;51.940;8.432;2023-11-19T10:27:49;14.77;;;3.40;;
20449;SDS011;10384;51.940;8.432;2023-11-19T10:30:20;18.00;;;3.27;;
20449;SDS011;10384;51.940;8.432;2023-11-19T10:32:54;19.17;;;3.00;;
20449;SDS011;10384;51.940;8.432;2023-11-19T10:35:28;13.00;;;3.00;;
20449;SDS011;10384;51.940;8.432;2023-11-19T10:37:54;17.93;;;3.20;;
20449;SDS011;10384;51.940;8.432;2023-11-19T10:40:20;28.17;;;4.73;;
20449;SDS011;10384;51.940;8.432;2023-11-19T10:42:46;18.00;;;2.97;;
20449;SDS011;10384;51.940;8.432;2023-11-19T10:45:21;14.63;;;3.17;;
20449;SDS011;10384;51.940;8.432;2023-11-19T10:47:48;23.97;;;3.80;;
20449;SDS011;10384;51.940;8.432;2023-11-19T10:50:15;23.27;;;3.93;;
20449;SDS011;10384;51.940;8.432;2023-11-19T10:52:41;17.10;;;3.23;;
20449;SDS011;10384;51.940;8.432;2023-11-19T10:55:08;15.07;;;2.40;;
20449;SDS011;10384;51.940;8.432;2023-11-19T10:57:39;17.90;;;3.53;;
20449;SDS011;10384;51.940;8.432;2023-11-19T11:00:09;21.10;;;4.47;;
20449;SDS011;10384;51.940;8.432;2023-11-19T11:02:41;16.67;;;3.03;;
20449;SDS011;10384;51.940;8.432;2023-11-19T11:05:08;12.43;;;2.50;;
20449;SDS011;10384;51.940;8.432;2023-11-19T11:07:35;16.70;;;3.70;;
20449;SDS011;10384;51.940;8.432;2023-11-19T11:10:02;15.43;;;3.63;;
20449;SDS011;10384;51.940;8.432;2023-11-19T11:12:31;20.63;;;3.60;;
20449;SDS011;10384;51.940;8.432;2023-11-19T11:14:58;15.67;;;3.13;;
20449;SDS011;10384;51.940;8.432;2023-11-19T11:17:25;16.37;;;5.10;;
20449;SDS011;10384;51.940;8.432;2023-11-19T11:19:53;16.63;;;3.03;;
20449;SDS011;10384;51.940;8.432;2023-11-19T11:22:19;18.37;;;3.63;;
20449;SDS011;10384;51.940;8.432;2023-11-19T11:25:02;22.13;;;3.33;;
20449;SDS011;10384;51.940;8.432;2023-11-19T11:37:49;19.43;;;3.10;;
20449;SDS011;10384;51.940;8.432;2023-11-19T11:40:17;18.53;;;3.03;;
20449;SDS011;10384;51.940;8.432;2023-11-19T11:42:46;19.93;;;2.40;;
20449;SDS011;10384;51.940;8.432;2023-11-19T11:45:13;14.63;;;2.70;;
20449;SDS011;10384;51.940;8.432;2023-11-19T11:50:12;27.30;;;3.53;;
20449;SDS011;10384;51.940;8.432;2023-11-19T11:55:25;13.17;;;2.40;;
20449;SDS011;10384;51.940;8.432;2023-11-19T11:57:51;17.73;;;2.97;;
20449;SDS011;10384;51.940;8.432;2023-11-19T12:00:30;17.87;;;3.77;;
20449;SDS011;10384;51.940;8.432;2023-11-19T12:02:56;20.97;;;5.70;;
20449;SDS011;10384;51.940;8.432;2023-11-19T12:05:23;18.63;;;5.80;;
20449;SDS011;10384;51.940;8.432;2023-11-19T12:08:01;24.20;;;4.50;;
20449;SDS011;10384;51.940;8.432;2023-11-19T12:10:29;18.03;;;4.03;;
20449;SDS011;10384;51.940;8.432;2023-11-19T12:12:58;17.00;;;2.70;;
20449;SDS011;10384;51.940;8.432;2023-11-19T12:15:25;14.63;;;3.27;;
20449;SDS011;10384;51.940;8.432;2023-11-19T12:17:52;21.60;;;3.50;;
20449;SDS011;10384;51.940;8.432;2023-11-19T12:20:20;18.27;;;2.50;;
20449;SDS011;10384;51.940;8.432;2023-11-19T12:22:46;17.90;;;3.03;;
20449;SDS011;10384;51.940;8.432;2023-11-19T12:25:14;19.17;;;3.30;;
20449;SDS011;10384;51.940;8.432;2023-11-19T12:27:45;16.80;;;3.17;;
20449;SDS011;10384;51.940;8.432;2023-11-19T12:30:11;18.00;;;3.77;;
20449;SDS011;10384;51.940;8.432;2023-11-19T12:32:41;20.50;;;3.17;;
20449;SDS011;10384;51.940;8.432;2023-11-19T12:35:07;16.23;;;3.07;;
20449;SDS011;10384;51.940;8.432;2023-11-19T12:37:42;15.77;;;2.27;;
20449;SDS011;10384;51.940;8.432;2023-11-19T12:42:38;16.07;;;2.20;;
20449;SDS011;10384;51.940;8.432;2023-11-19T12:45:04;12.80;;;3.10;;
20449;SDS011;10384;51.940;8.432;2023-11-19T12:47:30;13.67;;;3.17;;
20449;SDS011;10384;51.940;8.432;2023-11-19T12:49:56;19.13;;;2.67;;
20449;SDS011;10384;51.940;8.432;2023-11-19T12:52:22;16.47;;;3.27;;
20449;SDS011;10384;51.940;8.432;2023-11-19T12:54:49;15.37;;;3.03;;
20449;SDS011;10384;51.940;8.432;2023-11-19T12:57:15;18.83;;;2.37;;
20449;SDS011;10384;51.940;8.432;2023-11-19T12:59:53;17.27;;;3.23;;
20449;SDS011;10384;51.940;8.432;2023-11-19T13:02:20;13.20;;;2.37;;
20449;SDS011;10384;51.940;8.432;2023-11-19T13:04:46;19.47;;;2.70;;
20449;SDS011;10384;51.940;8.432;2023-11-19T13:07:12;16.60;;;3.03;;
20449;SDS011;10384;51.940;8.432;2023-11-19T13:09:38;19.53;;;4.00;;
20449;SDS011;10384;51.940;8.432;2023-11-19T13:12:14;19.13;;;3.57;;
20449;SDS011;10384;51.940;8.432;2023-11-19T13:14:40;26.50;;;7.37;;
20449;SDS011;10384;51.940;8.432;2023-11-19T13:17:07;10.50;;;3.73;;
20449;SDS011;10384;51.940;8.432;2023-11-19T13:19:33;15.37;;;3.07;;
20449;SDS011;10384;51.940;8.432;2023-11-19T13:21:59;13.77;;;3.70;;
20449;SDS011;10384;51.940;8.432;2023-11-19T13:24:25;11.20;;;2.60;;
20449;SDS011;10384;51.940;8.432;2023-11-19T13:26:51;15.20;;;2.87;;
20449;SDS011;10384;51.940;8.432;2023-11-19T13:29:17;21.67;;;5.83;;
20449;SDS011;10384;51.940;8.432;2023-11-19T13:31:43;15.67;;;4.60;;
20449;SDS011;10384;51.940;8.432;2023-11-19T13:34:09;12.20;;;3.03;;
20449;SDS011;10384;51.940;8.432;2023-11-19T13:36:35;13.93;;;3.53;;
20449;SDS011;10384;51.940;8.432;2023-11-19T13:39:01;14.77;;;4.07;;
20449;SDS011;10384;51.940;8.432;2023-11-19T13:41:27;21.10;;;3.37;;
20449;SDS011;10384;51.940;8.432;2023-11-19T13:43:53;13.07;;;2.57;;
20449;SDS011;10384;51.940;8.432;2023-11-19T13:46:20;15.80;;;2.57;;
20449;SDS011;10384;51.940;8.432;2023-11-19T13:48:46;11.10;;;3.70;;
20449;SDS011;10384;51.940;8.432;2023-11-19T13:51:14;10.97;;;2.50;;
20449;SDS011;10384;51.940;8.432;2023-11-19T13:53:40;16.80;;;3.63;;
20449;SDS011;10384;51.940;8.432;2023-11-19T13:56:06;10.70;;;3.20;;
20449;SDS011;10384;51.940;8.432;2023-11-19T13:58:33;17.73;;;3.30;;
20449;SDS011;10384;51.940;8.432;2023-11-19T14:01:00;10.30;;;2.77;;
20449;SDS011;10384;51.940;8.432;2023-11-19T14:03:26;13.50;;;2.83;;
20449;SDS011;10384;51.940;8.432;2023-11-19T14:05:52;13.53;;;2.70;;
20449;SDS011;10384;51.940;8.432;2023-11-19T14:08:20;14.43;;;2.70;;
20449;SDS011;10384;51.940;8.432;2023-11-19T14:10:46;13.23;;;2.90;;
20449;SDS011;10384;51.940;8.432;2023-11-19T14:13:12;12.80;;;3.17;;
20449;SDS011;10384;51.940;8.432;2023-11-19T14:15:40;17.53;;;2.93;;
20449;SDS011;10384;51.940;8.432;2023-11-19T14:18:07;15.70;;;2.97;;
20449;SDS011;10384;51.940;8.432;2023-11-19T14:20:33;25.57;;;2.67;;
20449;SDS011;10384;51.940;8.432;2023-11-19T14:23:00;11.43;;;2.40;;
20449;SDS011;10384;51.940;8.432;2023-11-19T14:25:27;13.17;;;3.20;;
20449;SDS011;10384;51.940;8.432;2023-11-19T14:27:53;14.13;;;2.93;;
20449;SDS011;10384;51.940;8.432;2023-11-19T14:30:19;17.23;;;2.37;;
20449;SDS011;10384;51.940;8.432;2023-11-19T14:32:45;8.47;;;2.43;;
20449;SDS011;10384;51.940;8.432;2023-11-19T14:35:13;16.13;;;2.50;;
20449;SDS011;10384;51.940;8.432;2023-11-19T14:37:39;13.83;;;2.10;;
20449;SDS011;10384;51.940;8.432;2023-11-19T14:40:05;15.10;;;2.57;;
20449;SDS011;10384;51.940;8.432;2023-11-19T14:42:36;15.43;;;2.23;;
20449;SDS011;10384;51.940;8.432;2023-11-19T14:45:02;10.57;;;2.17;;
20449;SDS011;10384;51.940;8.432;2023-11-19T14:47:28;11.13;;;2.33;;
20449;SDS011;10384;51.940;8.432;2023-11-19T14:49:55;16.60;;;2.73;;
20449;SDS011;10384;51.940;8.432;2023-11-19T14:52:21;9.77;;;2.17;;
20449;SDS011;10384;51.940;8.432;2023-11-19T14:54:47;8.47;;;1.53;;
20449;SDS011;10384;51.940;8.432;2023-11-19T14:57:13;11.23;;;2.27;;